Time;durP1;ratioP1;P1;durP2;ratioP2;P2;SDS_P1;SDS_P2;PMS_P1;PMS_P2;Temp;Humidity;BMP_temperature;BMP_pressure;BME280_temperature;BME280_humidity;BME280_pressure;Samples;Min_cycle;Max_cycle;Signal;HPM_P1;HPM_P2
2023/10/29 00:00:08;;;;;;;7.80;2.67;;;14.10;80.40;;;;;;5072762;28;20453;-79
2023/10/29 00:02:36;;;;;;;6.93;2.30;;;14.10;80.40;;;;;;5089417;28;20486;-80
2023/10/29 00:05:05;;;;;;;7.90;2.47;;;14.10;80.40;;;;;;5088947;28;20471;-81
2023/10/29 00:07:34;;;;;;;7.53;2.47;;;14.00;80.30;;;;;;5079686;28;20562;-79
2023/10/29 00:10:02;;;;;;;6.67;2.00;;;14.10;80.30;;;;;;5076218;28;20536;-80
2023/10/29 00:12:30;;;;;;;7.10;2.53;;;14.10;80.30;;;;;;5085559;28;20464;-80
2023/10/29 00:14:59;;;;;;;8.33;2.53;;;14.10;80.30;;;;;;5078703;28;20894;-79
2023/10/29 00:17:27;;;;;;;7.87;2.73;;;14.10;80.20;;;;;;5104305;28;20481;-80
2023/10/29 00:19:55;;;;;;;10.90;3.07;;;14.10;80.20;;;;;;5099895;28;20458;-80
2023/10/29 00:22:23;;;;;;;7.07;2.43;;;14.10;80.20;;;;;;5095144;28;20482;-78
2023/10/29 00:24:53;;;;;;;9.40;3.30;;;14.10;80.10;;;;;;5075464;28;20469;-81
2023/10/29 00:27:21;;;;;;;9.43;4.10;;;14.10;80.00;;;;;;5100556;28;20459;-80
2023/10/29 00:29:49;;;;;;;7.70;4.00;;;14.10;80.00;;;;;;5096287;28;20540;-80
2023/10/29 00:32:19;;;;;;;8.40;3.30;;;14.20;80.00;;;;;;5074357;28;20472;-79
2023/10/29 00:34:47;;;;;;;6.53;2.80;;;14.10;79.90;;;;;;5092243;28;20457;-80
2023/10/29 00:37:22;;;;;;;7.13;2.87;;;14.10;79.90;;;;;;5078068;28;20457;-79
2023/10/29 00:39:50;;;;;;;8.70;2.93;;;14.20;79.80;;;;;;5092048;28;20977;-80
2023/10/29 00:42:19;;;;;;;7.07;2.50;;;14.10;79.70;;;;;;5074553;28;20492;-82
2023/10/29 00:44:47;;;;;;;11.13;2.40;;;14.10;79.70;;;;;;5095647;28;20547;-78
2023/10/29 00:47:16;;;;;;;6.20;2.23;;;14.10;79.70;;;;;;5074445;28;20889;-80
2023/10/29 00:49:45;;;;;;;12.80;2.50;;;14.10;79.80;;;;;;5078295;28;20793;-80
2023/10/29 00:52:13;;;;;;;6.53;2.07;;;14.10;79.80;;;;;;5074723;28;20939;-79
2023/10/29 00:54:43;;;;;;;5.30;1.80;;;14.10;79.80;;;;;;5092123;28;20480;-79
2023/10/29 00:57:12;;;;;;;8.30;2.37;;;14.10;79.80;;;;;;5076649;28;20445;-79
2023/10/29 00:59:42;;;;;;;6.87;2.20;;;14.10;79.70;;;;;;5076633;28;20557;-79
2023/10/29 01:02:10;;;;;;;7.93;2.30;;;14.10;79.70;;;;;;5065894;28;20535;-79
2023/10/29 01:04:38;;;;;;;6.73;2.10;;;14.10;79.70;;;;;;5092786;28;20453;-80
2023/10/29 01:07:06;;;;;;;8.40;2.27;;;14.10;79.60;;;;;;5097587;28;20456;-79
2023/10/29 01:09:34;;;;;;;5.37;2.27;;;14.10;79.60;;;;;;5072224;28;20544;-79
2023/10/29 01:12:03;;;;;;;6.00;2.30;;;14.10;79.60;;;;;;5093835;28;20463;-78
2023/10/29 01:14:31;;;;;;;5.97;2.07;;;14.10;79.60;;;;;;5075530;28;20542;-80
2023/10/29 01:17:00;;;;;;;6.33;2.13;;;14.00;79.40;;;;;;5094230;28;20591;-79
2023/10/29 01:19:28;;;;;;;9.00;2.30;;;14.10;79.50;;;;;;5076542;28;21050;-80
2023/10/29 01:21:57;;;;;;;5.27;1.60;;;14.10;79.50;;;;;;5092346;28;20862;-80
2023/10/29 01:24:25;;;;;;;6.17;2.20;;;14.10;79.40;;;;;;5090641;28;20476;-80
2023/10/29 01:26:54;;;;;;;5.40;1.87;;;14.10;79.30;;;;;;5092643;28;20496;-79
2023/10/29 01:29:22;;;;;;;7.60;2.67;;;14.10;79.20;;;;;;5091375;28;20464;-81
2023/10/29 01:31:51;;;;;;;6.17;2.33;;;14.10;79.20;;;;;;5077771;28;20471;-78
2023/10/29 01:34:20;;;;;;;8.03;2.10;;;14.10;79.20;;;;;;5093673;28;20447;-79
2023/10/29 01:36:48;;;;;;;6.23;1.87;;;14.10;79.10;;;;;;5079110;28;20487;-82
2023/10/29 01:39:16;;;;;;;4.90;1.83;;;14.10;79.10;;;;;;5075831;28;20488;-81
2023/10/29 01:41:44;;;;;;;6.80;2.20;;;14.10;79.00;;;;;;5072706;28;20465;-79
2023/10/29 01:44:12;;;;;;;5.40;1.90;;;14.10;79.00;;;;;;5088475;28;20477;-79
2023/10/29 01:46:40;;;;;;;8.43;2.30;;;14.20;78.90;;;;;;5078605;28;20551;-80
2023/10/29 01:49:09;;;;;;;4.80;1.70;;;14.10;78.80;;;;;;5092044;28;20449;-80
2023/10/29 01:51:38;;;;;;;8.77;2.23;;;14.20;78.80;;;;;;5089596;28;21180;-79
2023/10/29 01:54:07;;;;;;;7.70;2.07;;;14.20;78.60;;;;;;5070640;28;20460;-79
2023/10/29 01:56:35;;;;;;;5.30;1.80;;;14.10;78.60;;;;;;5094481;28;20534;-79
2023/10/29 01:59:03;;;;;;;4.97;1.80;;;14.10;78.60;;;;;;5074765;28;20831;-81
2023/10/29 02:01:31;;;;;;;5.73;1.70;;;14.10;78.60;;;;;;5069083;28;20512;-80
2023/10/29 02:04:01;;;;;;;5.90;1.53;;;14.10;78.50;;;;;;5078861;28;20560;-80
2023/10/29 02:06:29;;;;;;;8.40;2.03;;;14.10;78.50;;;;;;5084160;28;20539;-79
2023/10/29 02:09:02;;;;;;;7.17;2.07;;;14.10;78.40;;;;;;5092132;28;20941;-79
2023/10/29 02:11:30;;;;;;;4.80;1.93;;;14.10;78.30;;;;;;5094598;28;20452;-79
2023/10/29 02:13:58;;;;;;;6.50;2.00;;;14.10;78.30;;;;;;5089205;28;20458;-80
2023/10/29 02:16:26;;;;;;;6.20;1.70;;;14.10;78.20;;;;;;5077801;28;20477;-79
2023/10/29 02:18:54;;;;;;;5.87;1.80;;;14.10;78.20;;;;;;5092180;28;20835;-79
2023/10/29 02:21:23;;;;;;;5.30;1.77;;;14.20;78.00;;;;;;5086920;28;20460;-79
2023/10/29 02:23:54;;;;;;;6.23;2.20;;;14.20;77.80;;;;;;5091797;28;20513;-80
2023/10/29 02:26:23;;;;;;;5.63;2.10;;;14.20;77.80;;;;;;5076124;28;20453;-78
2023/10/29 02:28:51;;;;;;;6.20;2.10;;;14.10;77.80;;;;;;5076067;28;20468;-79
2023/10/29 02:31:21;;;;;;;7.63;2.20;;;14.10;77.80;;;;;;5090258;28;20472;-80
2023/10/29 02:33:50;;;;;;;7.53;1.90;;;14.10;77.70;;;;;;5091102;28;20996;-78
2023/10/29 02:36:18;;;;;;;5.87;1.70;;;14.10;77.70;;;;;;5092851;28;20481;-79
2023/10/29 02:38:46;;;;;;;6.80;1.70;;;14.10;77.70;;;;;;5071224;28;20457;-79
2023/10/29 02:41:15;;;;;;;7.97;2.10;;;14.10;77.60;;;;;;5091289;28;21190;-79
2023/10/29 02:43:43;;;;;;;5.33;1.90;;;14.10;77.60;;;;;;5084013;28;20502;-79
2023/10/29 02:46:12;;;;;;;6.13;1.57;;;14.10;77.60;;;;;;5088808;28;20472;-78
2023/10/29 02:48:42;;;;;;;6.50;2.37;;;14.10;77.50;;;;;;5090133;28;20464;-79
2023/10/29 02:51:12;;;;;;;8.07;2.13;;;14.20;77.40;;;;;;5073675;28;20532;-79
2023/10/29 02:53:40;;;;;;;6.57;1.70;;;14.20;77.40;;;;;;5064597;28;20461;-79
2023/10/29 02:56:08;;;;;;;5.87;1.73;;;14.10;77.40;;;;;;5090427;28;20467;-80
2023/10/29 02:58:38;;;;;;;6.07;1.87;;;14.20;77.30;;;;;;5071861;28;20543;-78
2023/10/29 03:01:07;;;;;;;6.80;1.73;;;14.20;77.30;;;;;;5087373;28;20508;-79
2023/10/29 03:03:35;;;;;;;5.80;1.70;;;14.20;77.20;;;;;;5072011;28;20481;-81
2023/10/29 03:06:05;;;;;;;4.20;1.53;;;14.20;77.10;;;;;;5092607;28;21186;-80
2023/10/29 03:08:34;;;;;;;6.23;1.90;;;14.20;77.00;;;;;;5086484;28;20449;-79
2023/10/29 03:11:02;;;;;;;7.40;2.03;;;14.20;76.90;;;;;;5093160;28;20456;-79
2023/10/29 03:13:31;;;;;;;6.73;1.43;;;14.20;76.90;;;;;;5076423;28;20478;-79
2023/10/29 03:16:01;;;;;;;5.43;1.50;;;14.20;76.90;;;;;;5071529;28;20487;-78
2023/10/29 03:18:30;;;;;;;8.57;1.77;;;14.20;76.80;;;;;;5070489;28;20483;-79
2023/10/29 03:20:58;;;;;;;6.00;1.73;;;14.30;76.80;;;;;;5087569;28;20464;-80
2023/10/29 03:23:26;;;;;;;4.73;1.57;;;14.30;76.60;;;;;;5072453;28;20504;-79
2023/10/29 03:26:01;;;;;;;6.40;2.60;;;14.30;76.50;;;;;;5093798;28;20475;-80
2023/10/29 03:28:30;;;;;;;5.20;1.57;;;14.30;76.50;;;;;;5071857;28;20471;-79
2023/10/29 03:30:58;;;;;;;8.60;1.67;;;14.30;76.50;;;;;;5072198;28;20477;-78
2023/10/29 03:33:28;;;;;;;6.73;1.60;;;14.30;76.40;;;;;;5068579;28;20484;-79
2023/10/29 03:35:56;;;;;;;6.10;2.10;;;14.30;76.30;;;;;;5066500;28;20960;-80
2023/10/29 03:38:24;;;;;;;5.20;1.77;;;14.30;76.30;;;;;;5083399;28;20468;-79
2023/10/29 03:40:52;;;;;;;8.50;2.17;;;14.30;76.20;;;;;;5095019;28;20469;-79
2023/10/29 03:43:20;;;;;;;4.57;1.30;;;14.30;76.10;;;;;;5074803;28;20456;-79
2023/10/29 03:45:48;;;;;;;4.70;1.20;;;14.30;76.10;;;;;;5090277;28;20950;-79
2023/10/29 03:48:16;;;;;;;8.87;1.93;;;14.30;76.10;;;;;;5088695;28;20522;-81
2023/10/29 03:50:45;;;;;;;9.23;2.10;;;14.30;76.00;;;;;;5067104;28;20485;-79
2023/10/29 03:53:14;;;;;;;5.57;1.30;;;14.40;75.90;;;;;;5086827;28;20473;-80
2023/10/29 03:55:42;;;;;;;6.13;1.30;;;14.30;75.90;;;;;;5075774;28;20521;-80
2023/10/29 03:58:10;;;;;;;4.50;1.80;;;14.30;75.80;;;;;;5094540;28;20510;-82
2023/10/29 04:00:38;;;;;;;7.03;1.70;;;14.40;75.60;;;;;;5070856;28;20473;-80
2023/10/29 04:03:06;;;;;;;5.60;1.60;;;14.40;75.50;;;;;;5082287;28;21360;-80
2023/10/29 04:05:36;;;;;;;6.80;1.97;;;14.40;75.50;;;;;;5073889;28;20484;-79
2023/10/29 04:08:05;;;;;;;5.50;1.67;;;14.50;75.50;;;;;;5094750;28;20487;-80
2023/10/29 04:10:34;;;;;;;6.87;1.97;;;14.50;75.40;;;;;;5090392;28;20893;-79
2023/10/29 04:13:02;;;;;;;8.40;1.60;;;14.50;75.10;;;;;;5076803;28;20478;-79
2023/10/29 04:15:30;;;;;;;5.63;1.97;;;14.50;75.10;;;;;;5076534;28;20483;-78
2023/10/29 04:17:58;;;;;;;4.50;1.53;;;14.50;75.10;;;;;;5074921;28;20584;-78
2023/10/29 04:20:27;;;;;;;6.73;2.10;;;14.50;75.10;;;;;;5095242;28;20954;-81
2023/10/29 04:22:55;;;;;;;4.80;1.60;;;14.60;74.90;;;;;;5093779;28;20506;-79
2023/10/29 04:25:25;;;;;;;5.67;1.53;;;14.60;74.80;;;;;;5097857;28;20510;-79
2023/10/29 04:27:54;;;;;;;6.67;1.43;;;14.60;74.80;;;;;;5094786;28;20460;-77
2023/10/29 04:30:22;;;;;;;4.90;1.50;;;14.60;74.70;;;;;;5074084;28;20468;-78
2023/10/29 04:32:50;;;;;;;5.10;1.30;;;14.60;74.60;;;;;;5091208;28;20476;-79
2023/10/29 04:35:19;;;;;;;6.70;2.20;;;14.60;74.60;;;;;;5098082;28;20976;-80
2023/10/29 04:37:47;;;;;;;4.00;1.30;;;14.60;74.50;;;;;;5091315;28;20510;-79
2023/10/29 04:40:15;;;;;;;6.93;2.60;;;14.60;74.40;;;;;;5092967;28;20468;-79
2023/10/29 04:42:45;;;;;;;10.40;3.43;;;14.60;74.40;;;;;;5078022;28;20488;-78
2023/10/29 04:45:14;;;;;;;8.60;2.20;;;14.50;74.40;;;;;;5096912;28;20808;-79
2023/10/29 04:47:42;;;;;;;13.20;6.73;;;14.50;74.40;;;;;;5092267;28;20986;-80
2023/10/29 04:50:10;;;;;;;10.37;4.73;;;14.50;74.30;;;;;;5091832;28;20460;-80
2023/10/29 04:52:38;;;;;;;6.73;3.30;;;14.40;74.30;;;;;;5074830;28;20463;-80
2023/10/29 04:55:07;;;;;;;6.27;1.90;;;14.40;74.30;;;;;;5088823;28;20974;-79
2023/10/29 04:57:35;;;;;;;4.80;1.80;;;14.40;74.30;;;;;;5093329;28;20504;-79
2023/10/29 05:00:06;;;;;;;6.90;1.70;;;14.40;74.30;;;;;;5097036;28;20473;-79
2023/10/29 05:02:35;;;;;;;8.50;1.60;;;14.40;74.20;;;;;;5095276;28;20496;-78
2023/10/29 05:05:05;;;;;;;6.57;1.40;;;14.40;74.20;;;;;;5076536;28;20488;-80
2023/10/29 05:07:35;;;;;;;6.37;2.90;;;14.50;74.10;;;;;;5096332;28;20482;-80
2023/10/29 05:10:03;;;;;;;5.00;1.40;;;14.50;74.10;;;;;;5072857;28;21140;-80
2023/10/29 05:12:31;;;;;;;5.17;1.63;;;14.50;73.90;;;;;;5073357;28;21001;-79
2023/10/29 05:14:59;;;;;;;5.53;1.90;;;14.50;74.00;;;;;;5091563;28;20464;-80
2023/10/29 05:17:29;;;;;;;5.13;2.07;;;14.50;73.90;;;;;;5078645;28;20509;-80
2023/10/29 05:19:58;;;;;;;6.50;2.00;;;14.50;73.80;;;;;;5096002;28;20501;-80
2023/10/29 05:22:26;;;;;;;5.63;2.20;;;14.50;73.80;;;;;;5093268;28;20468;-79
2023/10/29 05:24:54;;;;;;;5.47;1.50;;;14.50;73.80;;;;;;5094989;28;20480;-81
2023/10/29 05:27:22;;;;;;;5.10;1.53;;;14.60;73.70;;;;;;5095276;28;20460;-81
2023/10/29 05:29:50;;;;;;;6.27;2.53;;;14.60;73.60;;;;;;5094813;28;20479;-80
2023/10/29 05:32:17;;;;;;;4.30;1.50;;;14.60;73.50;;;;;;5097501;28;20480;-79
2023/10/29 05:34:48;;;;;;;6.40;1.30;;;14.60;73.50;;;;;;5096825;28;20487;-79
2023/10/29 05:37:16;;;;;;;5.07;1.40;;;14.60;73.40;;;;;;5081548;28;21047;-79
2023/10/29 05:39:44;;;;;;;5.50;1.63;;;14.60;73.40;;;;;;5093136;28;20469;-79
2023/10/29 05:42:13;;;;;;;5.13;1.50;;;14.60;73.30;;;;;;5089385;28;20548;-79
2023/10/29 05:44:41;;;;;;;11.90;2.10;;;14.60;73.30;;;;;;5090415;28;21027;-79
2023/10/29 05:47:09;;;;;;;7.70;1.50;;;14.60;73.30;;;;;;5093783;28;20457;-78
2023/10/29 05:49:37;;;;;;;5.40;1.23;;;14.60;73.30;;;;;;5089722;28;20461;-80
2023/10/29 05:52:07;;;;;;;6.83;1.50;;;14.60;73.40;;;;;;5086110;28;20502;-80
2023/10/29 05:54:35;;;;;;;6.10;1.70;;;14.50;73.40;;;;;;5071464;28;20461;-80
2023/10/29 05:57:03;;;;;;;5.03;1.13;;;14.50;73.40;;;;;;5071456;28;20834;-78
2023/10/29 05:59:32;;;;;;;5.73;1.33;;;14.50;73.40;;;;;;5078544;28;20552;-80
2023/10/29 06:02:00;;;;;;;5.90;1.60;;;14.50;73.50;;;;;;5095840;28;20525;-80
2023/10/29 06:04:28;;;;;;;7.47;1.40;;;14.50;73.50;;;;;;5094956;28;20525;-78
2023/10/29 06:06:56;;;;;;;4.63;1.20;;;14.40;73.60;;;;;;5093795;28;20473;-80
2023/10/29 06:09:25;;;;;;;4.57;1.37;;;14.40;73.80;;;;;;5088828;28;20467;-79
2023/10/29 06:11:53;;;;;;;4.30;1.17;;;14.40;73.90;;;;;;5092732;28;20468;-79
2023/10/29 06:14:22;;;;;;;3.80;1.03;;;14.40;74.00;;;;;;5082791;28;20452;-79
2023/10/29 06:16:56;;;;;;;4.07;1.33;;;14.40;74.00;;;;;;5073354;28;20559;-80
2023/10/29 06:19:35;;;;;;;5.47;1.50;;;14.40;74.00;;;;;;5095409;28;20456;-78
2023/10/29 06:22:05;;;;;;;7.60;1.80;;;14.40;74.00;;;;;;5072247;28;20448;-79
2023/10/29 06:24:35;;;;;;;5.10;1.33;;;14.40;74.20;;;;;;5076883;28;20551;-78
2023/10/29 06:27:03;;;;;;;7.03;1.70;;;14.40;74.30;;;;;;5089645;28;20548;-81
2023/10/29 06:29:31;;;;;;;6.30;1.60;;;14.40;74.30;;;;;;5089730;28;20453;-79
2023/10/29 06:31:59;;;;;;;6.23;1.73;;;14.40;74.40;;;;;;5095946;28;20477;-80
2023/10/29 06:34:27;;;;;;;7.97;1.60;;;14.40;74.50;;;;;;5097275;28;20464;-79
2023/10/29 06:36:55;;;;;;;6.53;1.50;;;14.40;74.60;;;;;;5101599;28;20467;-79
2023/10/29 06:39:23;;;;;;;6.03;1.40;;;14.40;74.60;;;;;;5090200;28;20543;-79
2023/10/29 06:41:53;;;;;;;7.70;1.50;;;14.40;74.70;;;;;;5089454;28;20865;-79
2023/10/29 06:44:21;;;;;;;8.10;1.40;;;14.40;74.80;;;;;;5086005;28;20488;-79
2023/10/29 06:46:49;;;;;;;7.47;1.23;;;14.40;74.80;;;;;;5097691;28;20525;-79
2023/10/29 06:49:18;;;;;;;5.57;1.37;;;14.40;74.90;;;;;;5083730;28;20468;-81
2023/10/29 06:51:46;;;;;;;7.10;1.30;;;14.30;75.00;;;;;;5094453;28;20555;-77
2023/10/29 06:54:14;;;;;;;4.43;1.30;;;14.30;75.10;;;;;;5087020;28;20479;-79
2023/10/29 06:56:42;;;;;;;4.00;1.33;;;14.30;75.20;;;;;;5088015;28;21241;-80
2023/10/29 06:59:12;;;;;;;5.07;1.50;;;14.30;75.20;;;;;;5096307;28;20460;-78
2023/10/29 07:01:39;;;;;;;5.13;1.40;;;14.30;75.30;;;;;;5080018;28;20485;-80
2023/10/29 07:04:08;;;;;;;5.10;1.37;;;14.30;75.40;;;;;;5068699;28;20474;-78
2023/10/29 07:06:36;;;;;;;5.53;1.60;;;14.30;75.50;;;;;;5078133;28;20466;-78
2023/10/29 07:09:04;;;;;;;6.23;1.53;;;14.30;75.60;;;;;;5048289;28;20558;-79
2023/10/29 07:11:32;;;;;;;5.63;1.50;;;14.20;75.80;;;;;;5052920;28;20500;-79
2023/10/29 07:14:00;;;;;;;7.03;1.77;;;14.20;76.00;;;;;;5064480;28;20462;-80
2023/10/29 07:16:29;;;;;;;4.77;1.40;;;14.20;76.10;;;;;;5052168;28;21262;-80
2023/10/29 07:18:57;;;;;;;5.17;1.67;;;14.20;76.30;;;;;;5049697;28;21191;-80
2023/10/29 07:21:26;;;;;;;8.33;1.73;;;14.20;76.40;;;;;;5075063;28;20522;-80
2023/10/29 07:23:57;;;;;;;6.53;1.60;;;14.20;76.50;;;;;;5067353;28;20445;-78
2023/10/29 07:26:25;;;;;;;3.87;1.27;;;14.20;76.60;;;;;;5073776;28;21270;-80
2023/10/29 07:28:53;;;;;;;4.77;1.80;;;14.20;76.70;;;;;;5073833;28;20458;-78
2023/10/29 07:31:21;;;;;;;6.60;1.50;;;14.20;76.80;;;;;;5071081;28;20466;-79
2023/10/29 07:33:57;;;;;;;5.10;1.63;;;14.20;76.80;;;;;;5055848;28;20852;-79
2023/10/29 07:36:25;;;;;;;12.20;1.90;;;14.20;76.90;;;;;;5070758;28;20552;-80
2023/10/29 07:38:53;;;;;;;5.30;1.80;;;14.20;76.90;;;;;;5048520;28;20491;-80
2023/10/29 07:41:22;;;;;;;5.37;1.87;;;14.30;76.90;;;;;;5068478;28;20541;-80
2023/10/29 07:43:50;;;;;;;5.07;1.70;;;14.30;77.00;;;;;;5065335;28;20462;-80
2023/10/29 07:46:18;;;;;;;5.20;1.97;;;14.30;76.90;;;;;;5073067;28;20470;-79
2023/10/29 07:48:46;;;;;;;5.03;2.00;;;14.30;76.90;;;;;;5069190;28;20537;-79
2023/10/29 07:51:15;;;;;;;11.90;2.33;;;14.30;76.90;;;;;;5053701;28;20460;-78
2023/10/29 07:53:43;;;;;;;4.40;1.57;;;14.30;77.00;;;;;;5054763;28;20484;-78
2023/10/29 07:56:13;;;;;;;5.20;1.50;;;14.30;77.00;;;;;;5069767;28;20449;-79
2023/10/29 07:58:41;;;;;;;7.57;1.77;;;14.30;77.00;;;;;;5053314;28;20465;-78
2023/10/29 08:01:13;;;;;;;4.23;1.30;;;14.30;77.10;;;;;;5081111;28;20560;-77
2023/10/29 08:03:42;;;;;;;4.83;1.40;;;14.30;77.10;;;;;;5096620;28;20484;-80
2023/10/29 08:06:11;;;;;;;4.60;1.43;;;14.30;77.10;;;;;;5094978;28;20479;-79
2023/10/29 08:08:41;;;;;;;5.23;1.20;;;14.30;77.20;;;;;;5094219;28;20528;-79
2023/10/29 08:11:18;;;;;;;4.83;1.30;;;14.30;77.30;;;;;;5091006;28;20460;-78
2023/10/29 08:13:46;;;;;;;4.03;1.57;;;14.30;77.30;;;;;;5092249;28;20493;-79
2023/10/29 08:16:15;;;;;;;4.00;1.50;;;14.30;77.40;;;;;;5068765;28;20471;-79
2023/10/29 08:18:43;;;;;;;6.40;2.40;;;14.40;77.40;;;;;;5091642;28;20472;-80
2023/10/29 08:21:11;;;;;;;4.93;2.00;;;14.30;77.30;;;;;;5093774;28;20451;-79
2023/10/29 08:23:41;;;;;;;5.20;2.10;;;14.30;77.30;;;;;;5092606;28;20548;-80
2023/10/29 08:26:09;;;;;;;12.93;2.10;;;14.30;77.30;;;;;;5084587;28;21127;-79
2023/10/29 08:28:37;;;;;;;8.10;2.60;;;14.30;77.30;;;;;;5086477;28;20448;-78
2023/10/29 08:31:06;;;;;;;5.70;2.70;;;14.30;77.30;;;;;;5074730;28;20464;-80
2023/10/29 08:33:34;;;;;;;8.37;2.40;;;14.30;77.40;;;;;;5080034;28;20858;-80
2023/10/29 08:36:03;;;;;;;7.10;2.33;;;14.30;77.50;;;;;;5094969;28;20797;-79
2023/10/29 08:38:31;;;;;;;6.60;2.40;;;14.30;77.50;;;;;;5096049;28;20457;-78
2023/10/29 08:41:00;;;;;;;23.80;4.60;;;14.20;77.60;;;;;;5096920;28;20495;-80
2023/10/29 08:43:28;;;;;;;12.30;5.33;;;14.20;77.70;;;;;;5094512;28;20472;-80
2023/10/29 08:45:58;;;;;;;7.87;3.50;;;14.20;77.70;;;;;;5084230;28;20826;-80
2023/10/29 08:48:26;;;;;;;6.27;2.40;;;14.20;77.70;;;;;;5097670;28;20456;-80
2023/10/29 08:50:55;;;;;;;4.90;1.70;;;14.20;77.70;;;;;;5084101;28;20457;-79
2023/10/29 08:53:23;;;;;;;4.50;1.90;;;14.20;77.80;;;;;;5096942;28;20456;-80
2023/10/29 08:55:51;;;;;;;6.10;2.47;;;14.20;77.90;;;;;;5075649;28;20457;-79
2023/10/29 08:58:21;;;;;;;5.70;1.83;;;14.20;77.90;;;;;;5097876;28;20453;-80
2023/10/29 09:00:51;;;;;;;7.60;2.90;;;14.10;77.90;;;;;;5101277;28;21210;-79
2023/10/29 09:03:19;;;;;;;6.53;2.83;;;14.10;77.90;;;;;;5094894;28;20532;-83
2023/10/29 09:05:47;;;;;;;5.60;1.90;;;14.10;77.90;;;;;;5097029;28;20487;-80
2023/10/29 09:08:16;;;;;;;5.43;1.90;;;14.10;78.00;;;;;;5094823;28;20740;-80
2023/10/29 09:10:47;;;;;;;8.60;1.90;;;14.00;77.90;;;;;;5100654;28;20999;-80
2023/10/29 09:13:19;;;;;;;5.07;1.93;;;14.00;78.00;;;;;;5077942;28;20507;-78
2023/10/29 09:15:49;;;;;;;6.00;2.10;;;14.00;78.00;;;;;;5089286;28;20464;-79
2023/10/29 09:18:17;;;;;;;5.33;2.50;;;14.00;78.10;;;;;;5067758;28;20516;-80
2023/10/29 09:20:46;;;;;;;8.00;1.93;;;13.90;78.20;;;;;;5092449;28;20457;-80
2023/10/29 09:23:14;;;;;;;5.30;2.00;;;13.90;78.20;;;;;;5094108;28;20461;-79
2023/10/29 09:25:44;;;;;;;4.63;1.83;;;13.90;78.20;;;;;;5075288;28;20536;-80
2023/10/29 09:28:14;;;;;;;6.73;2.13;;;13.90;78.30;;;;;;5093828;28;20486;-79
2023/10/29 09:30:43;;;;;;;5.50;2.67;;;13.90;78.50;;;;;;5094158;28;20485;-79
2023/10/29 09:33:15;;;;;;;4.80;2.20;;;14.00;78.50;;;;;;5098805;28;20460;-79
2023/10/29 09:35:43;;;;;;;5.77;1.90;;;14.00;78.60;;;;;;5094455;28;20449;-79
2023/10/29 09:38:12;;;;;;;5.23;2.13;;;14.10;78.60;;;;;;5087779;28;20519;-79
2023/10/29 09:40:40;;;;;;;5.80;2.10;;;14.10;78.60;;;;;;5098974;28;20448;-79
2023/10/29 09:43:09;;;;;;;5.50;2.77;;;14.10;78.70;;;;;;5075424;28;20460;-80
2023/10/29 09:45:45;;;;;;;4.43;1.70;;;14.10;78.70;;;;;;5074455;28;20990;-81
2023/10/29 09:48:15;;;;;;;4.63;1.70;;;14.10;78.70;;;;;;5092749;28;20515;-80
2023/10/29 09:50:44;;;;;;;5.40;2.40;;;14.10;78.80;;;;;;5090776;28;20460;-79
2023/10/29 09:53:13;;;;;;;9.87;3.40;;;14.10;78.80;;;;;;5091411;28;20453;-79
2023/10/29 09:55:41;;;;;;;5.23;2.40;;;14.20;78.80;;;;;;5077525;28;20456;-81
2023/10/29 09:58:10;;;;;;;5.90;2.10;;;14.20;78.90;;;;;;5092752;28;20552;-80
2023/10/29 10:00:38;;;;;;;6.20;2.50;;;14.20;78.80;;;;;;5078977;28;20472;-79
2023/10/29 10:03:06;;;;;;;5.53;1.70;;;14.20;79.00;;;;;;5093618;28;20459;-82
2023/10/29 10:05:36;;;;;;;5.20;2.00;;;14.30;78.90;;;;;;5076689;28;20519;-80
2023/10/29 10:08:06;;;;;;;5.70;1.70;;;14.30;79.00;;;;;;5091713;28;20468;-79
2023/10/29 10:10:39;;;;;;;5.90;1.60;;;14.40;79.00;;;;;;5076722;28;20452;-81
2023/10/29 10:13:08;;;;;;;7.20;1.90;;;14.40;79.00;;;;;;5076568;28;21009;-82
2023/10/29 10:15:37;;;;;;;6.47;2.03;;;14.50;79.00;;;;;;5095336;28;20456;-78
2023/10/29 10:18:06;;;;;;;4.93;1.50;;;14.50;79.00;;;;;;5080803;28;20451;-79
2023/10/29 10:20:36;;;;;;;4.57;1.50;;;14.60;79.00;;;;;;5095772;28;20475;-79
2023/10/29 10:23:08;;;;;;;4.73;1.80;;;14.60;79.00;;;;;;5095587;28;20467;-82
2023/10/29 10:25:36;;;;;;;10.90;3.40;;;14.60;79.00;;;;;;5074029;28;20453;-80
2023/10/29 10:28:05;;;;;;;5.20;1.70;;;14.60;79.10;;;;;;5089039;28;20472;-80
2023/10/29 10:30:36;;;;;;;5.20;1.57;;;14.70;79.20;;;;;;5094053;28;20468;-80
2023/10/29 10:33:13;;;;;;;3.90;1.43;;;14.70;79.30;;;;;;5101507;28;20460;-80
2023/10/29 10:35:50;;;;;;;7.73;2.07;;;14.70;79.40;;;;;;5100931;28;21031;-80
2023/10/29 10:38:22;;;;;;;5.67;1.83;;;14.70;79.50;;;;;;5091600;28;20866;-79
2023/10/29 10:40:58;;;;;;;4.30;1.30;;;14.80;79.60;;;;;;5089239;28;21184;-81
2023/10/29 10:43:28;;;;;;;6.10;2.03;;;14.80;79.70;;;;;;5076322;28;20456;-79
2023/10/29 10:45:56;;;;;;;4.57;1.67;;;14.90;79.70;;;;;;5089571;28;20464;-80
2023/10/29 10:48:25;;;;;;;4.73;1.50;;;14.90;79.60;;;;;;5091339;28;20573;-78
2023/10/29 10:50:56;;;;;;;4.30;2.03;;;14.90;79.70;;;;;;5071314;28;20490;-81
2023/10/29 10:53:27;;;;;;;5.80;2.77;;;15.00;79.70;;;;;;5091301;28;20943;-80
2023/10/29 10:55:55;;;;;;;6.13;2.90;;;15.00;79.70;;;;;;5092665;28;20548;-79
2023/10/29 10:58:34;;;;;;;5.00;2.37;;;15.00;79.70;;;;;;5088512;28;20452;-79
2023/10/29 11:01:03;;;;;;;4.90;2.07;;;15.00;79.70;;;;;;5090805;28;20877;-80
2023/10/29 11:03:34;;;;;;;15.00;9.10;;;15.00;79.70;;;;;;5068563;28;20456;-80
2023/10/29 11:06:06;;;;;;;11.07;6.87;;;15.00;79.80;;;;;;5071286;28;20518;-79
2023/10/29 11:08:34;;;;;;;29.97;26.60;;;15.00;79.80;;;;;;5087928;28;20597;-79
2023/10/29 11:11:03;;;;;;;9.20;5.83;;;15.00;79.80;;;;;;5086621;28;20445;-80
2023/10/29 11:13:39;;;;;;;5.77;2.40;;;15.00;79.90;;;;;;5095625;28;20445;-80
2023/10/29 11:16:21;;;;;;;4.70;2.00;;;15.00;79.90;;;;;;5089205;28;20455;-79
2023/10/29 11:18:49;;;;;;;6.07;3.03;;;15.00;80.00;;;;;;5085567;28;20469;-79
2023/10/29 11:21:33;;;;;;;9.47;3.43;;;15.00;80.00;;;;;;5076350;28;20834;-80
2023/10/29 11:24:18;;;;;;;5.33;2.37;;;15.00;80.10;;;;;;5072228;28;20499;-80
2023/10/29 11:26:47;;;;;;;4.90;2.57;;;15.00;80.10;;;;;;5086451;28;20559;-79
2023/10/29 11:29:42;;;;;;;7.60;3.10;;;15.00;80.10;;;;;;5092279;28;20480;-80
2023/10/29 11:32:26;;;;;;;6.60;3.97;;;15.00;80.30;;;;;;5089995;28;20484;-79
2023/10/29 11:35:20;;;;;;;9.30;3.93;;;15.00;80.30;;;;;;5072270;28;20481;-80
2023/10/29 11:37:51;;;;;;;9.40;3.87;;;15.00;80.30;;;;;;5088693;28;20548;-79
2023/10/29 11:40:34;;;;;;;11.30;6.10;;;15.00;80.30;;;;;;5071702;28;20479;-80
2023/10/29 11:43:22;;;;;;;7.50;3.60;;;15.00;80.50;;;;;;5086129;28;20546;-82
2023/10/29 11:46:00;;;;;;;7.17;2.20;;;15.00;80.60;;;;;;5082666;28;20457;-80
2023/10/29 11:48:33;;;;;;;5.00;1.90;;;15.00;80.60;;;;;;5092341;28;20506;-78
2023/10/29 11:51:23;;;;;;;5.77;2.00;;;15.00;80.80;;;;;;5096749;28;20459;-80
2023/10/29 11:53:52;;;;;;;5.47;2.17;;;15.00;80.90;;;;;;5092800;28;20556;-80
2023/10/29 11:56:24;;;;;;;5.10;1.93;;;15.00;81.00;;;;;;5076367;28;20563;-79
2023/10/29 11:59:05;;;;;;;6.90;2.10;;;15.00;81.10;;;;;;5084203;28;21106;-80
2023/10/29 12:01:35;;;;;;;6.13;2.10;;;15.10;81.20;;;;;;5093457;28;20479;-78
2023/10/29 12:04:05;;;;;;;10.17;2.40;;;15.10;81.20;;;;;;5072154;28;20552;-77
2023/10/29 12:06:43;;;;;;;7.00;2.07;;;15.10;81.10;;;;;;5092443;28;20460;-79
2023/10/29 12:09:21;;;;;;;5.47;2.07;;;15.20;81.20;;;;;;5072015;28;21063;-80
2023/10/29 12:11:52;;;;;;;6.10;1.93;;;15.30;81.20;;;;;;5086549;28;20489;-79
2023/10/29 12:14:39;;;;;;;5.53;1.90;;;15.40;81.10;;;;;;5095031;28;20448;-79
2023/10/29 12:17:09;;;;;;;8.23;2.70;;;15.50;81.10;;;;;;5095494;28;20558;-77
2023/10/29 12:19:40;;;;;;;7.20;3.20;;;15.50;81.00;;;;;;5080106;28;20518;-78
2023/10/29 12:22:16;;;;;;;5.40;2.40;;;15.60;80.90;;;;;;5095528;28;20457;-79
2023/10/29 12:24:46;;;;;;;7.43;2.93;;;15.60;80.80;;;;;;5094697;28;21026;-82
2023/10/29 12:27:18;;;;;;;10.53;5.67;;;15.70;80.80;;;;;;5079833;28;20486;-79
2023/10/29 12:29:47;;;;;;;8.03;3.33;;;15.70;80.80;;;;;;5097516;28;20488;-80
2023/10/29 12:32:22;;;;;;;9.63;4.63;;;15.70;80.80;;;;;;5075096;28;20476;-80
2023/10/29 12:34:51;;;;;;;11.50;6.47;;;15.70;80.80;;;;;;5094552;28;20453;-80
2023/10/29 12:37:21;;;;;;;19.10;14.03;;;15.70;80.80;;;;;;5077007;28;20496;-79
2023/10/29 12:39:53;;;;;;;12.20;4.67;;;15.80;80.80;;;;;;5079789;28;20845;-79
2023/10/29 12:42:21;;;;;;;9.17;4.60;;;15.80;80.70;;;;;;5067293;28;20994;-81
2023/10/29 12:44:54;;;;;;;17.67;9.20;;;15.80;80.70;;;;;;5077517;28;20577;-81
2023/10/29 12:47:24;;;;;;;12.53;5.10;;;15.80;80.70;;;;;;5081235;28;20461;-79
2023/10/29 12:50:00;;;;;;;22.60;10.80;;;15.80;80.70;;;;;;5096490;28;20485;-80
2023/10/29 12:52:31;;;;;;;7.43;3.63;;;15.80;80.80;;;;;;5089005;28;20464;-79
2023/10/29 12:55:01;;;;;;;16.57;8.10;;;15.80;80.80;;;;;;5091029;28;20539;-80
2023/10/29 12:57:29;;;;;;;19.33;10.10;;;15.90;80.90;;;;;;5075228;28;20772;-81